PROFILE

 METAR AND TAF INFORMATION
ADDS - METARS form results

(1147 UTC 16 October 2019)
http://aviationweather.gov/metar/data/
 
MMAA 161050Z 30002KT 5SM -RA BKN015CB OVC080 25/23 A2977 RMK 60105 8/96/ OCNL LTGIC
TAF MMAA 161040Z 1612/1718 02005KT 5SM -RA BKN015CB OVC080 TX28/1619Z TN25/1612Z TEMPO 1612/1616 2SM TSRA OVC010CB FM161600 23010KT 6SM -RA BKN015CB BKN090 OVC300 TEMPO 1618/1622 2SM TSRA FM170200 13005KT 5SM -RA BKN010CB BKN090 OVC300 TEMPO 1703/1707 2SM TSRA OVC010CB FM171600 13010KT 4SM -RA BKN015CB OVC080 

 AIRPORT MAP

 RUNWAY INFORMATION
Runway 06 Runway length 5579 ft Runway width 115 ft
Runway elevation 11 ft Runway displaced threshold 0 ft Runway heading 67
Runway 24 Runway length 5579 ft Runway width 115 ft
Runway elevation 11 ft Runway displaced threshold 0 ft Runway heading 247
Runway 10 Runway length 10832 ft Runway width 148 ft
Runway elevation 13 ft Runway displaced threshold 0 ft Runway heading 108
Runway 28 Runway length 10832 ft Runway width 148 ft
Runway elevation 13 ft Runway displaced threshold 0 ft Runway heading 288

 AIRPORT FREQUENCIES
Type APP Name ACAPULCO A Frequency 119.9 MHZ
Type ATIS Name ATIS Frequency 115.9 MHZ
Type TWR Name ACAPULCO T Frequency 118.5 MHZ

 AIRPORT NEAR NAVIGATION AIDS
Type VOR-DME Name Acapulco Frequency 115900 KHZ